Time;durP1;ratioP1;P1;durP2;ratioP2;P2;SDS_P1;SDS_P2;PMS_P1;PMS_P2;Temp;Humidity;BMP_temperature;BMP_pressure;BME280_temperature;BME280_humidity;BME280_pressure;Samples;Min_cycle;Max_cycle;Signal;HPM_P1;HPM_P2
2022/03/15 00:02:23;;;;;;;15.68;6.97;;;3.60;99.90;;;;;;4842712;29;20057;-84
2022/03/15 00:04:50;;;;;;;18.15;6.93;;;3.60;99.90;;;;;;4841701;29;20057;-75
2022/03/15 00:07:15;;;;;;;18.23;6.80;;;3.60;99.90;;;;;;4841756;29;20133;-72
2022/03/15 00:09:42;;;;;;;17.73;6.93;;;3.60;99.90;;;;;;4842014;29;20163;-78
2022/03/15 00:12:09;;;;;;;20.25;7.53;;;3.60;99.90;;;;;;4825341;29;20510;-82
2022/03/15 00:14:37;;;;;;;19.00;7.53;;;3.60;99.90;;;;;;4826896;29;20054;-73
2022/03/15 00:17:05;;;;;;;24.92;7.45;;;3.70;99.90;;;;;;4845628;29;20525;-72
2022/03/15 00:19:31;;;;;;;16.35;7.15;;;3.60;99.90;;;;;;4845860;29;20079;-79
2022/03/15 00:21:57;;;;;;;19.50;7.95;;;3.60;99.90;;;;;;4845072;29;20056;-84
2022/03/15 00:24:23;;;;;;;17.98;7.05;;;3.60;99.90;;;;;;4844769;29;20129;-79
2022/03/15 00:26:49;;;;;;;16.40;7.82;;;3.60;99.90;;;;;;4845109;29;20142;-74
2022/03/15 00:29:18;;;;;;;24.25;9.30;;;3.60;99.90;;;;;;4844195;29;20474;-79
2022/03/15 00:31:47;;;;;;;17.83;8.50;;;3.50;99.90;;;;;;4845289;29;20113;-74
2022/03/15 00:34:12;;;;;;;20.27;8.95;;;3.60;99.90;;;;;;4828538;29;20050;-73
2022/03/15 00:36:38;;;;;;;22.55;8.57;;;3.60;99.90;;;;;;4828262;29;20130;-72
2022/03/15 00:39:05;;;;;;;22.65;8.75;;;3.70;99.90;;;;;;4844648;29;20121;-72
2022/03/15 00:41:31;;;;;;;17.95;7.50;;;3.50;99.90;;;;;;4844928;29;20056;-73
2022/03/15 00:43:57;;;;;;;15.68;6.82;;;3.50;99.90;;;;;;4843811;29;20082;-82
2022/03/15 00:46:23;;;;;;;19.02;7.05;;;3.40;99.90;;;;;;4828339;29;20129;-73
2022/03/15 00:48:49;;;;;;;19.23;7.90;;;3.30;99.90;;;;;;4845054;29;20477;-76
2022/03/15 00:51:14;;;;;;;20.65;9.25;;;3.30;99.90;;;;;;4813173;29;20426;-73
2022/03/15 00:53:41;;;;;;;18.90;8.75;;;3.20;99.90;;;;;;4844739;29;20064;-80
2022/03/15 00:56:07;;;;;;;17.88;8.55;;;3.20;99.90;;;;;;4844399;29;20506;-72
2022/03/15 00:58:33;;;;;;;20.98;9.50;;;3.30;99.90;;;;;;4828270;29;20111;-82
2022/03/15 01:00:58;;;;;;;19.83;8.90;;;3.30;99.90;;;;;;4827551;29;20495;-74
2022/03/15 01:03:24;;;;;;;23.10;9.75;;;3.30;99.90;;;;;;4844350;29;20422;-84
2022/03/15 01:05:50;;;;;;;19.95;9.00;;;3.30;99.90;;;;;;4844708;29;20061;-73
2022/03/15 01:08:16;;;;;;;25.17;11.10;;;3.30;99.90;;;;;;4827720;29;20053;-72
2022/03/15 01:10:42;;;;;;;20.33;10.10;;;3.30;99.90;;;;;;4827977;29;20049;-72
2022/03/15 01:13:08;;;;;;;19.92;8.88;;;3.40;99.90;;;;;;4844362;29;20518;-84
2022/03/15 01:15:42;;;;;;;22.00;11.02;;;3.40;99.90;;;;;;4844203;29;20061;-72
2022/03/15 01:18:09;;;;;;;20.75;9.65;;;3.40;99.90;;;;;;4844270;29;20058;-73
2022/03/15 01:20:36;;;;;;;23.23;9.93;;;3.40;99.90;;;;;;4844228;29;20065;-72
2022/03/15 01:23:02;;;;;;;23.38;10.30;;;3.30;99.90;;;;;;4844031;29;20053;-72
2022/03/15 01:25:28;;;;;;;23.35;12.05;;;3.30;99.90;;;;;;4843785;29;20060;-84
2022/03/15 01:27:55;;;;;;;28.42;12.45;;;3.40;99.90;;;;;;4843423;29;20045;-73
2022/03/15 01:30:20;;;;;;;21.70;10.48;;;3.40;99.90;;;;;;4844442;29;20134;-73
2022/03/15 01:32:46;;;;;;;21.73;12.00;;;3.40;99.90;;;;;;4844428;29;20125;-83
2022/03/15 01:35:11;;;;;;;24.98;10.68;;;3.40;99.90;;;;;;4844147;29;20049;-73
2022/03/15 01:37:37;;;;;;;22.85;11.60;;;3.60;99.90;;;;;;4827777;29;20057;-81
2022/03/15 01:40:03;;;;;;;26.23;12.07;;;3.40;99.90;;;;;;4843858;29;20050;-80
2022/03/15 01:42:29;;;;;;;22.30;12.10;;;3.40;99.90;;;;;;4844205;29;20054;-71
2022/03/15 01:44:54;;;;;;;21.83;12.65;;;3.50;99.90;;;;;;4827388;29;20472;-81
2022/03/15 01:47:20;;;;;;;24.27;12.13;;;3.40;99.90;;;;;;4827754;29;20050;-76
2022/03/15 01:49:46;;;;;;;24.55;12.57;;;3.50;99.90;;;;;;4844360;29;20479;-77
2022/03/15 01:52:15;;;;;;;25.70;12.27;;;3.40;99.90;;;;;;4844090;29;20045;-73
2022/03/15 01:54:41;;;;;;;28.90;13.60;;;3.40;99.90;;;;;;4844348;29;20050;-84
2022/03/15 01:57:09;;;;;;;23.88;13.45;;;3.40;99.90;;;;;;4847880;29;20085;-82
2022/03/15 01:59:36;;;;;;;25.65;11.88;;;3.50;99.90;;;;;;4848389;29;20133;-75
2022/03/15 02:02:02;;;;;;;24.33;12.65;;;4.00;99.90;;;;;;4848438;29;20137;-72
2022/03/15 02:04:28;;;;;;;23.10;12.48;;;3.50;99.90;;;;;;4846952;29;20141;-72
2022/03/15 02:07:11;;;;;;;25.13;11.77;;;3.90;99.90;;;;;;4845323;29;20077;-80
2022/03/15 02:09:37;;;;;;;31.45;13.57;;;3.40;99.90;;;;;;4845117;29;20057;-72
2022/03/15 02:12:03;;;;;;;20.77;11.15;;;3.40;99.90;;;;;;4829159;29;20050;-83
2022/03/15 02:14:29;;;;;;;25.42;11.30;;;3.50;99.90;;;;;;4843480;29;20105;-75
2022/03/15 02:16:55;;;;;;;26.10;12.45;;;3.40;99.90;;;;;;4827551;29;20513;-72
2022/03/15 02:19:22;;;;;;;21.65;11.25;;;3.40;99.90;;;;;;4827154;29;20061;-82
2022/03/15 02:21:49;;;;;;;23.75;11.13;;;3.40;99.90;;;;;;4846992;29;20054;-82
2022/03/15 02:24:15;;;;;;;21.17;11.00;;;3.40;99.90;;;;;;4843134;29;20134;-84
2022/03/15 02:26:40;;;;;;;20.92;10.88;;;3.70;99.90;;;;;;4844246;29;20570;-75
2022/03/15 02:29:06;;;;;;;20.95;12.15;;;3.20;99.90;;;;;;4843656;29;20190;-81
2022/03/15 02:31:32;;;;;;;27.05;11.65;;;3.20;99.90;;;;;;4827228;29;20182;-72
2022/03/15 02:33:58;;;;;;;25.80;12.45;;;3.20;99.90;;;;;;4842898;29;20056;-78
2022/03/15 02:36:23;;;;;;;26.30;12.00;;;3.20;99.90;;;;;;4843595;29;20046;-72
2022/03/15 02:38:49;;;;;;;23.60;11.52;;;3.20;99.90;;;;;;4843813;29;20057;-85
2022/03/15 02:41:15;;;;;;;25.23;12.65;;;3.20;99.90;;;;;;4845229;29;20494;-73
2022/03/15 02:43:43;;;;;;;25.42;12.27;;;3.20;99.90;;;;;;4828401;29;20394;-85
2022/03/15 02:46:09;;;;;;;22.23;12.02;;;3.20;99.90;;;;;;4829964;29;20061;-73
2022/03/15 02:48:35;;;;;;;19.90;11.32;;;3.10;99.90;;;;;;4830341;29;20042;-73
2022/03/15 02:51:08;;;;;;;21.08;10.88;;;3.10;99.90;;;;;;4830870;29;20144;-73
2022/03/15 02:53:34;;;;;;;20.85;11.70;;;3.00;99.90;;;;;;4847652;29;20085;-72
2022/03/15 02:56:00;;;;;;;23.50;11.98;;;3.10;99.90;;;;;;4815327;29;20141;-75
2022/03/15 02:58:25;;;;;;;21.58;11.80;;;3.00;99.90;;;;;;4846954;29;20058;-81
2022/03/15 03:00:51;;;;;;;19.40;11.15;;;3.00;99.90;;;;;;4830959;29;20087;-73
2022/03/15 03:03:18;;;;;;;21.20;10.80;;;3.00;99.90;;;;;;4846640;29;20432;-76
2022/03/15 03:05:43;;;;;;;20.70;12.38;;;3.00;99.90;;;;;;4846471;29;20050;-84
2022/03/15 03:08:10;;;;;;;22.15;11.48;;;3.00;99.90;;;;;;4830150;29;20048;-73
2022/03/15 03:10:36;;;;;;;20.60;11.18;;;3.00;99.90;;;;;;4830776;29;20093;-84
2022/03/15 03:13:02;;;;;;;22.63;11.70;;;3.00;99.90;;;;;;4848317;29;20056;-85
2022/03/15 03:15:31;;;;;;;19.85;11.23;;;3.00;99.90;;;;;;4848232;29;20368;-73
2022/03/15 03:17:57;;;;;;;18.80;10.18;;;3.00;99.90;;;;;;4831745;29;20054;-83
2022/03/15 03:20:24;;;;;;;20.55;10.43;;;3.00;99.90;;;;;;4849069;29;20053;-73
2022/03/15 03:22:50;;;;;;;19.85;10.60;;;3.00;99.90;;;;;;4830352;29;20412;-85
2022/03/15 03:25:17;;;;;;;18.10;10.38;;;3.10;99.90;;;;;;4847288;29;20054;-72
2022/03/15 03:27:42;;;;;;;17.10;10.75;;;3.00;99.90;;;;;;4829856;29;20056;-75
2022/03/15 03:30:10;;;;;;;20.83;11.82;;;3.00;99.90;;;;;;4845816;29;20101;-73
2022/03/15 03:32:35;;;;;;;20.90;10.98;;;3.00;99.90;;;;;;4845216;29;20099;-72
2022/03/15 03:35:04;;;;;;;17.45;10.43;;;3.00;99.90;;;;;;4845689;29;20053;-78
2022/03/15 03:37:31;;;;;;;21.85;11.20;;;3.00;99.90;;;;;;4829101;29;20124;-72
2022/03/15 03:39:57;;;;;;;19.52;10.73;;;3.20;99.90;;;;;;4846207;29;20126;-71
2022/03/15 03:42:24;;;;;;;27.60;12.43;;;3.00;99.90;;;;;;4846054;29;20034;-83
2022/03/15 03:44:50;;;;;;;28.27;14.70;;;3.00;99.90;;;;;;4829457;29;20537;-74
2022/03/15 03:47:17;;;;;;;33.95;15.02;;;3.00;99.90;;;;;;4846058;29;20050;-83
2022/03/15 03:49:43;;;;;;;28.33;13.93;;;3.00;99.90;;;;;;4847295;29;20439;-71
2022/03/15 03:52:11;;;;;;;24.15;13.68;;;4.20;99.90;;;;;;4849650;29;20061;-71
2022/03/15 03:54:37;;;;;;;26.08;13.15;;;3.10;99.90;;;;;;4833260;29;20146;-72
2022/03/15 03:57:03;;;;;;;27.70;14.15;;;3.10;99.90;;;;;;4850179;29;20138;-72
2022/03/15 03:59:28;;;;;;;29.83;14.05;;;3.10;99.90;;;;;;4834761;29;20065;-77
2022/03/15 04:01:54;;;;;;;24.15;14.40;;;3.10;99.90;;;;;;4849822;29;20114;-71
2022/03/15 04:04:20;;;;;;;30.80;14.68;;;3.10;99.90;;;;;;4832275;29;20058;-81
2022/03/15 04:06:46;;;;;;;26.92;15.25;;;3.20;99.90;;;;;;4832907;29;20119;-72
2022/03/15 04:09:11;;;;;;;26.25;14.55;;;3.20;99.90;;;;;;4850638;29;20137;-79
2022/03/15 04:11:40;;;;;;;31.80;16.42;;;3.30;99.90;;;;;;4849522;29;20046;-72
2022/03/15 04:14:11;;;;;;;29.27;14.68;;;3.30;99.90;;;;;;4834750;29;20060;-71
2022/03/15 04:16:37;;;;;;;33.17;16.27;;;3.30;99.90;;;;;;4851973;29;20485;-73
2022/03/15 04:19:04;;;;;;;28.20;14.60;;;3.30;99.90;;;;;;4849713;29;20060;-72
2022/03/15 04:21:30;;;;;;;28.38;13.65;;;2.60;99.90;;;;;;4850450;29;20061;-82
2022/03/15 04:23:56;;;;;;;25.58;14.52;;;3.30;99.90;;;;;;4850785;29;20042;-83
2022/03/15 04:26:24;;;;;;;30.13;15.30;;;3.30;99.90;;;;;;4829997;29;20049;-72
2022/03/15 04:28:50;;;;;;;27.80;14.10;;;3.30;99.90;;;;;;4846221;29;20042;-81
2022/03/15 04:31:16;;;;;;;24.98;14.18;;;3.30;99.90;;;;;;4844860;29;20088;-83
2022/03/15 04:33:42;;;;;;;26.40;14.55;;;3.30;99.90;;;;;;4845870;29;20473;-77
2022/03/15 04:36:07;;;;;;;25.40;13.73;;;3.30;99.90;;;;;;4829608;29;20115;-86
2022/03/15 04:38:34;;;;;;;25.45;13.68;;;3.30;99.90;;;;;;4813312;29;20064;-75
2022/03/15 04:41:00;;;;;;;25.88;13.15;;;3.30;99.90;;;;;;4846010;29;20050;-83
2022/03/15 04:43:26;;;;;;;25.20;12.85;;;3.40;99.90;;;;;;4845154;29;20129;-73
2022/03/15 04:45:52;;;;;;;21.98;11.52;;;3.40;99.90;;;;;;4828542;29;20137;-83
2022/03/15 04:48:20;;;;;;;21.58;11.30;;;3.30;99.90;;;;;;4813898;29;20098;-83
2022/03/15 04:50:46;;;;;;;20.58;11.60;;;3.20;99.90;;;;;;4844687;29;20097;-73
2022/03/15 04:53:12;;;;;;;22.30;11.60;;;3.30;99.90;;;;;;4844596;29;20574;-83
2022/03/15 04:55:37;;;;;;;20.73;12.07;;;3.60;99.90;;;;;;4828783;29;20156;-75
2022/03/15 04:58:03;;;;;;;20.02;11.27;;;3.20;99.90;;;;;;4845608;29;20061;-73
2022/03/15 05:00:29;;;;;;;21.65;11.85;;;3.30;99.90;;;;;;4828342;29;20403;-82
2022/03/15 05:02:55;;;;;;;22.67;11.63;;;3.30;99.90;;;;;;4843552;29;20521;-76
2022/03/15 05:05:20;;;;;;;21.40;12.15;;;3.30;99.90;;;;;;4828094;29;20066;-74
2022/03/15 05:07:46;;;;;;;25.92;12.68;;;3.40;99.90;;;;;;4844455;29;20064;-83
2022/03/15 05:12:57;;;;;;;20.55;10.07;;;3.40;99.90;;;;;;4844939;29;20477;-84
2022/03/15 05:15:23;;;;;;;18.23;9.48;;;3.40;99.90;;;;;;4846293;29;20089;-83
2022/03/15 05:17:49;;;;;;;20.73;10.90;;;3.50;99.90;;;;;;4846096;29;20079;-78
2022/03/15 05:20:15;;;;;;;17.88;9.98;;;3.50;99.90;;;;;;4845528;29;20065;-81
2022/03/15 05:22:43;;;;;;;20.83;10.77;;;3.50;99.90;;;;;;4827471;29;20065;-72
2022/03/15 05:25:10;;;;;;;18.80;9.15;;;3.50;99.90;;;;;;4843704;29;20380;-73
2022/03/15 05:27:36;;;;;;;17.60;8.18;;;3.60;99.90;;;;;;4844763;29;20053;-74
2022/03/15 05:30:03;;;;;;;20.92;9.75;;;3.60;99.90;;;;;;4844637;29;20050;-72
2022/03/15 05:32:29;;;;;;;20.10;9.23;;;3.70;99.90;;;;;;4844547;29;20998;-72
2022/03/15 05:34:55;;;;;;;17.38;9.68;;;3.70;99.90;;;;;;4844165;29;20062;-81
2022/03/15 05:37:21;;;;;;;19.05;9.52;;;3.70;99.90;;;;;;4843529;29;20053;-72
2022/03/15 05:39:46;;;;;;;20.80;9.88;;;3.90;99.90;;;;;;4842353;29;20110;-79
2022/03/15 05:42:13;;;;;;;25.90;11.23;;;3.70;99.90;;;;;;4828104;29;20057;-83
2022/03/15 05:44:39;;;;;;;22.02;10.93;;;3.70;99.90;;;;;;4828104;29;20062;-73
2022/03/15 05:47:06;;;;;;;24.58;11.73;;;3.70;99.90;;;;;;4843206;29;20410;-85
2022/03/15 05:49:31;;;;;;;25.08;11.70;;;3.80;99.90;;;;;;4842677;29;20129;-82
2022/03/15 05:51:57;;;;;;;17.00;7.07;;;3.80;99.90;;;;;;4844160;29;20061;-81
2022/03/15 05:54:23;;;;;;;15.65;6.28;;;3.80;99.90;;;;;;4843704;29;20064;-73
2022/03/15 05:56:48;;;;;;;17.27;6.72;;;3.90;99.90;;;;;;4843966;29;20475;-78
2022/03/15 05:59:14;;;;;;;17.08;7.18;;;3.90;99.90;;;;;;4842205;29;20538;-73
2022/03/15 06:01:40;;;;;;;19.42;6.88;;;3.90;99.90;;;;;;4843908;29;20053;-80
2022/03/15 06:04:07;;;;;;;19.13;7.20;;;3.90;99.90;;;;;;4830538;29;20054;-72
2022/03/15 06:06:33;;;;;;;18.13;7.53;;;3.90;99.90;;;;;;4848308;29;20098;-80
2022/03/15 06:08:59;;;;;;;14.88;6.78;;;4.00;99.90;;;;;;4847597;29;20098;-77
2022/03/15 06:11:25;;;;;;;21.65;7.15;;;4.00;99.90;;;;;;4845846;29;20468;-79
2022/03/15 06:13:51;;;;;;;20.13;7.85;;;4.00;99.90;;;;;;4847377;29;20120;-73
2022/03/15 06:16:17;;;;;;;14.95;6.97;;;4.00;99.90;;;;;;4832651;29;20100;-70
2022/03/15 06:18:42;;;;;;;22.27;6.90;;;4.00;99.90;;;;;;4849586;29;20054;-76
2022/03/15 06:21:08;;;;;;;16.50;5.82;;;4.00;99.90;;;;;;4849533;29;20049;-73
2022/03/15 06:23:34;;;;;;;18.67;7.47;;;4.10;99.90;;;;;;4848240;29;20041;-79
2022/03/15 06:26:00;;;;;;;14.18;6.93;;;4.10;99.90;;;;;;4828970;29;20058;-77
2022/03/15 06:28:26;;;;;;;22.92;6.15;;;4.10;99.90;;;;;;4844602;29;20483;-73
2022/03/15 06:30:52;;;;;;;17.65;7.80;;;4.50;99.90;;;;;;4845718;29;20085;-73
2022/03/15 06:33:18;;;;;;;17.52;7.32;;;4.10;99.90;;;;;;4822595;29;20513;-69
2022/03/15 06:35:46;;;;;;;21.35;6.93;;;4.20;99.90;;;;;;4826446;29;20076;-69
2022/03/15 06:38:12;;;;;;;16.42;6.15;;;4.20;99.90;;;;;;4825661;29;20054;-72
2022/03/15 06:40:38;;;;;;;16.38;6.50;;;4.20;99.90;;;;;;4826175;29;20065;-69
2022/03/15 06:43:06;;;;;;;15.77;6.65;;;4.20;99.90;;;;;;4825909;29;20456;-71
2022/03/15 06:45:32;;;;;;;21.52;9.05;;;4.30;99.90;;;;;;4839495;29;20415;-71
2022/03/15 06:47:58;;;;;;;13.55;6.28;;;4.30;99.90;;;;;;4842662;29;20502;-72
2022/03/15 06:50:24;;;;;;;17.67;6.65;;;4.30;99.90;;;;;;4842663;29;20046;-71
2022/03/15 06:52:50;;;;;;;21.48;7.97;;;4.90;99.90;;;;;;4826989;29;20085;-72
2022/03/15 06:55:16;;;;;;;24.90;7.65;;;4.40;99.90;;;;;;4825976;29;20113;-75
2022/03/15 06:57:42;;;;;;;18.17;7.57;;;4.40;99.90;;;;;;4826442;29;20132;-72
2022/03/15 07:00:10;;;;;;;23.15;7.68;;;4.50;99.90;;;;;;4842061;29;20050;-69
2022/03/15 07:02:36;;;;;;;25.25;8.50;;;4.50;99.90;;;;;;4842895;29;20069;-68
2022/03/15 07:05:03;;;;;;;19.65;8.77;;;4.60;99.90;;;;;;4844136;29;20072;-68
2022/03/15 07:07:28;;;;;;;22.10;7.75;;;4.60;99.90;;;;;;4842711;29;20502;-73
2022/03/15 07:09:54;;;;;;;16.33;7.68;;;4.70;99.90;;;;;;4827600;29;20062;-73
2022/03/15 07:12:26;;;;;;;21.25;7.78;;;4.70;99.90;;;;;;4826787;29;20054;-71
2022/03/15 07:14:52;;;;;;;18.10;7.15;;;4.70;99.90;;;;;;4826074;29;20046;-81
2022/03/15 07:17:19;;;;;;;22.15;8.27;;;4.80;99.90;;;;;;4842319;29;20048;-79
2022/03/15 07:19:45;;;;;;;18.15;8.35;;;5.20;99.90;;;;;;4840583;29;20066;-71
2022/03/15 07:22:10;;;;;;;27.42;10.13;;;4.80;99.90;;;;;;4842024;29;20054;-70
2022/03/15 07:24:36;;;;;;;26.17;9.55;;;4.80;99.90;;;;;;4839843;29;20137;-70
2022/03/15 07:27:03;;;;;;;23.60;9.32;;;4.90;99.90;;;;;;4823913;29;20149;-75
2022/03/15 07:29:29;;;;;;;26.30;9.07;;;4.90;99.90;;;;;;4824734;29;20050;-77
2022/03/15 07:31:55;;;;;;;26.13;8.82;;;5.50;99.90;;;;;;4809374;29;20105;-73
2022/03/15 07:34:21;;;;;;;29.50;11.68;;;5.00;99.90;;;;;;4825512;29;20136;-78
2022/03/15 07:36:47;;;;;;;26.70;10.90;;;5.10;99.90;;;;;;4840774;29;20058;-75
2022/03/15 07:39:12;;;;;;;29.88;10.40;;;5.10;99.90;;;;;;4841082;29;20056;-77
2022/03/15 07:41:40;;;;;;;29.55;10.20;;;5.20;99.90;;;;;;4841163;29;20085;-78
2022/03/15 07:44:09;;;;;;;26.40;11.05;;;5.20;99.90;;;;;;4840710;29;20453;-76
2022/03/15 07:46:36;;;;;;;32.80;10.75;;;5.30;99.90;;;;;;4841241;29;20053;-77
2022/03/15 07:49:02;;;;;;;29.45;10.35;;;5.30;99.90;;;;;;4839951;29;20057;-77
2022/03/15 07:51:28;;;;;;;20.38;9.68;;;5.30;99.90;;;;;;4809462;29;20140;-78
2022/03/15 07:53:54;;;;;;;27.08;10.45;;;5.40;99.90;;;;;;4840744;29;20422;-77
2022/03/15 07:56:20;;;;;;;25.40;10.75;;;5.70;99.90;;;;;;4841303;29;20046;-78
2022/03/15 07:58:46;;;;;;;24.02;9.45;;;5.50;99.90;;;;;;4840582;29;20077;-72
2022/03/15 08:01:11;;;;;;;29.33;10.80;;;5.60;99.90;;;;;;4840669;29;20057;-77
2022/03/15 08:03:37;;;;;;;25.70;10.13;;;5.70;99.90;;;;;;4840979;29;20136;-77
2022/03/15 08:06:03;;;;;;;26.77;10.35;;;5.70;99.90;;;;;;4808838;29;20126;-77
2022/03/15 08:08:28;;;;;;;28.80;11.43;;;5.80;99.90;;;;;;4824769;29;20076;-77
2022/03/15 08:10:54;;;;;;;28.35;10.90;;;5.80;99.90;;;;;;4840647;29;20050;-78
2022/03/15 08:13:20;;;;;;;28.55;11.40;;;5.80;99.90;;;;;;4824277;29;20115;-75
2022/03/15 08:15:46;;;;;;;25.35;9.80;;;5.90;99.90;;;;;;4840075;29;20056;-70
2022/03/15 08:18:12;;;;;;;29.10;11.23;;;5.60;99.90;;;;;;4829010;29;20050;-71
2022/03/15 08:20:40;;;;;;;27.30;11.13;;;5.90;99.90;;;;;;4815493;29;20050;-78
2022/03/15 08:23:06;;;;;;;24.48;11.15;;;6.00;99.90;;;;;;4820249;29;20065;-71
2022/03/15 08:25:32;;;;;;;30.73;11.40;;;6.00;99.90;;;;;;4839440;29;20056;-73
2022/03/15 08:28:00;;;;;;;27.52;11.35;;;6.10;99.90;;;;;;4840621;29;20046;-71
2022/03/15 08:30:27;;;;;;;24.08;9.80;;;6.30;99.90;;;;;;4840470;29;20042;-70
2022/03/15 08:32:52;;;;;;;24.35;11.02;;;6.20;99.90;;;;;;4840651;29;20046;-68
2022/03/15 08:35:18;;;;;;;25.08;10.73;;;6.50;99.90;;;;;;4809920;29;20087;-74
2022/03/15 08:37:50;;;;;;;29.92;11.95;;;6.20;99.90;;;;;;4844052;29;20046;-74
2022/03/15 08:40:16;;;;;;;26.37;11.43;;;6.20;99.90;;;;;;4824592;29;20588;-72
2022/03/15 08:42:42;;;;;;;29.50;11.35;;;6.30;99.90;;;;;;4842251;29;20050;-71
2022/03/15 08:45:09;;;;;;;26.17;9.68;;;6.30;99.90;;;;;;4841873;29;20574;-75
2022/03/15 08:47:35;;;;;;;27.27;12.75;;;6.30;99.90;;;;;;4826398;29;20045;-72
2022/03/15 08:50:01;;;;;;;26.85;11.38;;;6.30;99.90;;;;;;4844637;29;20149;-72
2022/03/15 08:52:27;;;;;;;27.48;11.13;;;6.30;99.90;;;;;;4840688;29;20068;-76
2022/03/15 08:54:52;;;;;;;27.08;10.82;;;6.70;99.90;;;;;;4840149;29;20054;-71
2022/03/15 08:57:18;;;;;;;25.70;11.15;;;6.40;99.90;;;;;;4829197;29;20104;-70
2022/03/15 08:59:44;;;;;;;26.58;10.50;;;6.80;99.90;;;;;;4833432;29;20132;-69
2022/03/15 09:02:12;;;;;;;26.75;11.30;;;6.50;99.90;;;;;;4838416;29;20060;-71
2022/03/15 09:04:38;;;;;;;26.45;11.63;;;6.50;99.90;;;;;;4841948;29;20057;-71
2022/03/15 09:07:04;;;;;;;27.15;11.45;;;6.50;99.90;;;;;;4831768;29;20038;-73
2022/03/15 09:09:30;;;;;;;23.40;10.75;;;6.50;99.90;;;;;;4839864;29;20058;-69
2022/03/15 09:11:56;;;;;;;26.83;10.52;;;6.60;99.90;;;;;;4840524;29;20494;-70
2022/03/15 09:14:21;;;;;;;23.90;10.55;;;7.00;99.90;;;;;;4841527;29;20515;-69
2022/03/15 09:16:47;;;;;;;34.00;12.23;;;6.60;99.90;;;;;;4839229;29;20456;-69
2022/03/15 09:19:13;;;;;;;30.33;11.88;;;6.60;99.90;;;;;;4841278;29;20483;-70
2022/03/15 09:21:39;;;;;;;28.20;13.50;;;6.70;99.90;;;;;;4841404;29;20134;-72
2022/03/15 09:24:05;;;;;;;25.90;10.35;;;6.70;99.90;;;;;;4824518;29;20053;-70
2022/03/15 09:26:32;;;;;;;26.73;11.48;;;6.70;99.90;;;;;;4823618;29;20093;-72
2022/03/15 09:28:58;;;;;;;31.55;13.68;;;6.70;99.90;;;;;;4840884;29;20422;-72
2022/03/15 09:31:24;;;;;;;26.48;11.60;;;6.70;99.90;;;;;;4841827;29;20132;-70
2022/03/15 09:33:50;;;;;;;27.95;10.45;;;6.70;99.90;;;;;;4839406;29;20057;-73
2022/03/15 09:36:16;;;;;;;24.48;11.07;;;6.80;99.90;;;;;;4823948;29;20057;-73
2022/03/15 09:38:43;;;;;;;26.45;11.93;;;6.80;99.90;;;;;;4841401;29;20129;-73
2022/03/15 09:41:09;;;;;;;25.42;11.90;;;6.80;99.90;;;;;;4824583;29;20065;-74
2022/03/15 09:43:38;;;;;;;25.65;11.95;;;6.80;99.90;;;;;;4841818;29;20050;-74
2022/03/15 09:46:06;;;;;;;23.30;11.00;;;6.80;99.90;;;;;;4824281;29;20080;-73
2022/03/15 09:48:34;;;;;;;28.80;11.70;;;6.80;99.90;;;;;;4840542;29;20139;-73
2022/03/15 09:51:04;;;;;;;28.75;12.07;;;6.80;99.90;;;;;;4841680;29;20650;-73
2022/03/15 09:53:34;;;;;;;25.05;11.80;;;6.90;99.90;;;;;;4825024;29;20524;-73
2022/03/15 09:56:00;;;;;;;30.98;12.77;;;6.90;99.90;;;;;;4823435;29;20052;-74
2022/03/15 09:58:26;;;;;;;27.58;12.02;;;7.10;99.90;;;;;;4841781;29;20049;-74
2022/03/15 10:00:54;;;;;;;24.63;11.60;;;6.90;99.90;;;;;;4841444;29;20041;-73
2022/03/15 10:03:21;;;;;;;29.17;12.93;;;6.90;99.90;;;;;;4841351;29;20065;-73
2022/03/15 10:05:49;;;;;;;24.98;11.35;;;7.30;99.90;;;;;;4839190;29;20057;-72
2022/03/15 10:08:17;;;;;;;25.42;11.27;;;6.90;99.90;;;;;;4841462;29;20120;-71
2022/03/15 10:10:43;;;;;;;27.08;11.00;;;7.00;99.90;;;;;;4841393;29;20439;-70
2022/03/15 10:13:09;;;;;;;29.40;13.38;;;7.00;99.90;;;;;;4839177;29;20137;-71
2022/03/15 10:15:35;;;;;;;27.70;13.00;;;7.00;99.90;;;;;;4839393;29;20157;-80
2022/03/15 10:18:04;;;;;;;24.95;11.63;;;7.00;99.90;;;;;;4839221;29;20060;-77
2022/03/15 10:20:42;;;;;;;32.08;13.07;;;7.00;99.90;;;;;;4820447;29;20054;-78
2022/03/15 10:23:11;;;;;;;26.95;11.75;;;7.00;99.90;;;;;;4840286;29;20054;-78
2022/03/15 10:25:41;;;;;;;24.58;11.48;;;7.00;99.90;;;;;;4822021;29;20066;-77
2022/03/15 10:28:08;;;;;;;30.58;13.05;;;7.00;99.90;;;;;;4823298;29;20058;-75
2022/03/15 10:30:36;;;;;;;28.73;13.27;;;7.00;99.90;;;;;;4839263;29;20124;-76
2022/03/15 10:33:03;;;;;;;28.77;13.43;;;7.10;99.90;;;;;;4840107;29;20042;-77
2022/03/15 10:35:32;;;;;;;29.88;12.65;;;7.00;99.90;;;;;;4838160;29;20046;-75
2022/03/15 10:37:59;;;;;;;26.63;11.82;;;7.70;99.90;;;;;;4839585;29;20154;-75
2022/03/15 10:40:32;;;;;;;33.00;13.93;;;7.20;99.90;;;;;;4804620;29;20045;-75
2022/03/15 10:43:14;;;;;;;30.00;14.10;;;7.20;99.90;;;;;;4839007;29;20175;-77
2022/03/15 10:45:48;;;;;;;28.80;13.13;;;7.40;99.90;;;;;;4836894;29;20062;-73
2022/03/15 10:48:21;;;;;;;32.42;12.85;;;7.50;99.90;;;;;;4838661;29;20053;-76
2022/03/15 10:51:09;;;;;;;32.78;14.35;;;7.70;99.90;;;;;;4837465;29;20491;-76
2022/03/15 10:53:44;;;;;;;29.05;13.20;;;7.80;99.90;;;;;;4839856;29;20054;-75
2022/03/15 10:56:11;;;;;;;28.38;13.45;;;8.30;99.90;;;;;;4838150;29;20069;-73
2022/03/15 10:59:01;;;;;;;28.30;12.45;;;8.10;99.90;;;;;;4838403;29;20053;-76
2022/03/15 11:01:37;;;;;;;31.75;14.05;;;8.30;99.90;;;;;;4821295;29;20069;-73
2022/03/15 11:04:07;;;;;;;28.20;13.57;;;8.40;99.90;;;;;;4836064;29;20074;-73
2022/03/15 11:06:40;;;;;;;26.60;12.60;;;8.50;99.90;;;;;;4820733;29;20065;-75
2022/03/15 11:09:15;;;;;;;32.42;12.52;;;8.50;99.90;;;;;;4838537;29;20053;-73
2022/03/15 11:11:42;;;;;;;26.08;13.50;;;8.60;99.90;;;;;;4822666;29;20050;-74
2022/03/15 11:14:09;;;;;;;32.67;12.70;;;8.70;99.90;;;;;;4840034;29;20050;-74
2022/03/15 11:16:37;;;;;;;30.60;12.73;;;9.00;99.90;;;;;;4821314;29;20069;-75
2022/03/15 11:19:05;;;;;;;27.50;12.38;;;8.90;99.90;;;;;;4835949;29;20049;-76
2022/03/15 11:21:34;;;;;;;26.98;12.02;;;8.90;99.90;;;;;;4839167;29;20042;-76
2022/03/15 11:24:02;;;;;;;31.08;12.00;;;8.90;99.90;;;;;;4822826;29;20052;-68
2022/03/15 11:26:33;;;;;;;29.00;11.85;;;9.00;99.90;;;;;;4836964;29;20952;-73
2022/03/15 11:29:02;;;;;;;22.52;11.27;;;9.00;99.90;;;;;;4820313;29;20094;-70
2022/03/15 11:31:29;;;;;;;26.42;10.75;;;9.00;99.90;;;;;;4830690;29;20089;-70
2022/03/15 11:33:57;;;;;;;29.30;13.40;;;9.00;99.90;;;;;;4831379;29;20046;-77
2022/03/15 11:36:25;;;;;;;27.98;13.00;;;9.10;99.90;;;;;;4820839;29;20124;-72
2022/03/15 11:38:52;;;;;;;27.45;11.98;;;9.10;99.90;;;;;;4838524;29;20090;-72
2022/03/15 11:41:21;;;;;;;26.75;11.65;;;9.10;99.90;;;;;;4839011;29;20057;-75
2022/03/15 11:44:13;;;;;;;24.15;11.68;;;9.10;99.90;;;;;;4822852;29;20063;-72
2022/03/15 11:47:30;;;;;;;25.98;11.95;;;9.10;99.90;;;;;;4837048;29;20057;-70
2022/03/15 11:50:16;;;;;;;27.15;10.52;;;9.20;99.90;;;;;;4764814;30;20138;-69
2022/03/15 11:52:53;;;;;;;26.98;13.07;;;9.30;99.90;;;;;;4762179;30;20082;-77
2022/03/15 11:55:42;;;;;;;28.73;11.65;;;9.40;99.90;;;;;;4763657;30;20148;-73
2022/03/15 11:58:10;;;;;;;26.23;11.25;;;9.50;99.90;;;;;;4763376;30;20058;-71
2022/03/15 12:00:44;;;;;;;25.75;11.50;;;9.50;99.90;;;;;;4763986;30;20464;-72
2022/03/15 12:03:15;;;;;;;25.98;11.48;;;9.50;99.90;;;;;;4749883;30;20081;-72
2022/03/15 12:06:01;;;;;;;25.10;10.65;;;9.70;99.90;;;;;;4762879;30;20059;-70
2022/03/15 12:08:27;;;;;;;26.23;10.52;;;9.60;99.90;;;;;;4747848;30;20056;-75
2022/03/15 12:11:01;;;;;;;20.83;10.90;;;9.70;99.90;;;;;;4764598;30;20060;-77
2022/03/15 12:14:00;;;;;;;25.10;10.98;;;9.80;99.90;;;;;;4753677;30;20060;-75
2022/03/15 12:16:34;;;;;;;28.88;11.57;;;9.90;99.90;;;;;;4751775;30;20121;-75
2022/03/15 12:19:10;;;;;;;22.80;10.18;;;9.90;99.90;;;;;;4767099;30;20067;-75
2022/03/15 12:21:53;;;;;;;34.10;11.40;;;10.30;99.90;;;;;;4767594;30;20296;-78
2022/03/15 12:24:39;;;;;;;;;;;9.90;99.90;;;;;;4774308;29;20088;-76
2022/03/15 12:27:14;;;;;;;21.17;9.85;;;9.90;99.90;;;;;;4807310;29;19928;-78
2022/03/15 12:29:54;;;;;;;23.25;10.90;;;9.90;99.90;;;;;;4842062;29;20053;-70
2022/03/15 12:32:20;;;;;;;23.77;10.10;;;9.90;99.90;;;;;;4841957;29;20499;-79
2022/03/15 12:34:50;;;;;;;22.98;10.63;;;10.00;99.90;;;;;;4842284;29;20053;-76
2022/03/15 12:37:27;;;;;;;27.67;9.93;;;10.10;99.90;;;;;;4823904;29;20085;-78
2022/03/15 12:39:54;;;;;;;27.05;10.50;;;9.80;99.90;;;;;;4837365;29;20451;-78
2022/03/15 12:42:23;;;;;;;23.95;9.63;;;10.00;99.90;;;;;;4841775;29;20073;-78
2022/03/15 12:44:52;;;;;;;27.45;10.52;;;9.80;99.90;;;;;;4842059;29;20497;-77
2022/03/15 12:47:25;;;;;;;23.02;9.43;;;9.90;99.90;;;;;;4823930;29;20057;-78